createdAt,value
2022-10-16T00:00:59.329Z,31.35
2022-10-16T00:03:29.558Z,28.52
2022-10-16T00:06:01.121Z,34.60
2022-10-16T00:08:29.149Z,20.23
2022-10-16T00:11:34.562Z,23.50
2022-10-16T00:14:04.243Z,24.48
2022-10-16T00:16:32.102Z,19.92
2022-10-16T00:18:59.473Z,19.80
2022-10-16T00:21:28.972Z,24.90
2022-10-16T00:24:02.295Z,26.17
2022-10-16T00:26:31.228Z,20.88
2022-10-16T00:28:58.288Z,26.95
2022-10-16T00:31:25.949Z,23.80
2022-10-16T00:33:53.554Z,26.48
2022-10-16T00:36:22.940Z,20.90
2022-10-16T00:38:55.950Z,26.70
2022-10-16T00:41:24.868Z,21.23
2022-10-16T00:43:56.607Z,22.85
2022-10-16T00:46:27.780Z,26.42
2022-10-16T00:49:02.912Z,16.52
2022-10-16T00:51:36.574Z,16.13
2022-10-16T00:54:07.955Z,23.83
2022-10-16T00:56:35.084Z,19.98
2022-10-16T00:59:08.016Z,25.17
2022-10-16T01:01:35.075Z,29.90
2022-10-16T01:04:02.044Z,29.65
2022-10-16T01:06:47.927Z,22.10
2022-10-16T01:09:20.866Z,24.02
2022-10-16T01:12:08.727Z,23.77
2022-10-16T01:17:18.956Z,33.85
2022-10-16T01:20:02.960Z,29.88
2022-10-16T01:22:40.785Z,33.15
2022-10-16T01:25:17.321Z,38.30
2022-10-16T01:27:49.552Z,39.45
2022-10-16T01:30:27.394Z,36.90
2022-10-16T01:33:00.644Z,33.08
2022-10-16T01:35:30.159Z,32.05
2022-10-16T01:38:06.008Z,29.65
2022-10-16T01:40:35.970Z,29.27
2022-10-16T01:43:20.239Z,24.45
2022-10-16T01:45:48.410Z,26.42
2022-10-16T01:48:20.273Z,24.33
2022-10-16T01:51:03.808Z,24.13
2022-10-16T01:53:31.860Z,25.50
2022-10-16T01:56:01.461Z,27.33
2022-10-16T01:58:35.641Z,26.83
2022-10-16T02:01:06.002Z,36.90
2022-10-16T02:03:34.864Z,25.15
2022-10-16T02:06:01.965Z,24.55
2022-10-16T02:08:31.000Z,23.83
2022-10-16T02:10:59.379Z,24.52
2022-10-16T02:13:35.508Z,24.90
2022-10-16T02:16:02.639Z,36.75
2022-10-16T02:18:31.868Z,24.23
2022-10-16T02:21:04.064Z,28.05
2022-10-16T02:23:55.454Z,24.85
2022-10-16T02:26:32.751Z,27.65
2022-10-16T02:31:37.295Z,23.38
2022-10-16T02:34:06.201Z,27.55
2022-10-16T02:36:34.612Z,28.42
2022-10-16T02:39:02.608Z,26.92
2022-10-16T02:41:29.820Z,21.40
2022-10-16T02:43:56.807Z,22.60
2022-10-16T02:46:23.924Z,27.73
2022-10-16T02:48:50.824Z,20.80
2022-10-16T02:51:17.791Z,22.20
2022-10-16T02:53:44.733Z,17.20
2022-10-16T02:56:11.648Z,21.90
2022-10-16T02:58:38.618Z,23.58
2022-10-16T03:01:05.782Z,22.30
2022-10-16T03:03:32.961Z,18.30
2022-10-16T03:06:01.057Z,24.80
2022-10-16T03:08:27.981Z,25.38
2022-10-16T03:10:55.203Z,21.48
2022-10-16T03:13:22.421Z,20.90
2022-10-16T03:15:49.800Z,27.88
2022-10-16T03:18:16.700Z,27.52
2022-10-16T03:20:44.986Z,25.13
2022-10-16T03:23:12.497Z,22.23
2022-10-16T03:25:39.715Z,19.75
2022-10-16T03:28:07.231Z,23.05
2022-10-16T03:30:34.840Z,18.98
2022-10-16T03:33:01.712Z,25.00
2022-10-16T03:35:29.333Z,22.63
2022-10-16T03:37:57.531Z,20.80
2022-10-16T03:40:24.680Z,22.58
2022-10-16T03:42:51.881Z,21.50
2022-10-16T03:45:19.106Z,20.88
2022-10-16T03:47:45.982Z,22.73
2022-10-16T03:50:13.611Z,17.13
2022-10-16T03:52:40.503Z,22.77
2022-10-16T03:55:08.762Z,18.90
2022-10-16T03:57:36.081Z,18.10
2022-10-16T04:00:04.136Z,21.73
2022-10-16T04:02:39.376Z,18.67
2022-10-16T04:05:06.913Z,21.58
2022-10-16T04:07:33.880Z,16.88
2022-10-16T04:10:01.602Z,17.40
2022-10-16T04:12:28.773Z,17.55
2022-10-16T04:14:56.510Z,18.38
2022-10-16T04:17:23.927Z,21.52
2022-10-16T04:19:51.345Z,20.45
2022-10-16T04:22:18.269Z,19.27
2022-10-16T04:24:45.700Z,20.80
2022-10-16T04:27:12.620Z,18.48
2022-10-16T04:29:39.761Z,23.55
2022-10-16T04:32:07.089Z,22.25
2022-10-16T04:34:34.417Z,17.95
2022-10-16T04:37:01.509Z,20.10
2022-10-16T04:39:28.414Z,25.40
2022-10-16T04:41:55.379Z,22.20
2022-10-16T04:44:22.362Z,24.83
2022-10-16T04:46:51.629Z,21.17
2022-10-16T04:49:18.674Z,22.52
2022-10-16T04:51:45.636Z,28.25
2022-10-16T04:54:12.642Z,20.73
2022-10-16T04:56:47.618Z,28.05
2022-10-16T04:59:16.156Z,18.48
2022-10-16T05:01:43.319Z,19.85
2022-10-16T05:04:10.557Z,20.83
2022-10-16T05:06:39.607Z,22.67
2022-10-16T05:09:07.042Z,20.55
2022-10-16T05:11:34.075Z,25.65
2022-10-16T05:14:01.848Z,23.35
2022-10-16T05:16:28.852Z,24.30
2022-10-16T05:19:22.467Z,20.23
2022-10-16T05:21:43.770Z,22.98
2022-10-16T05:24:11.071Z,20.45
2022-10-16T05:26:38.171Z,14.25
2022-10-16T05:29:05.305Z,19.08
2022-10-16T05:31:32.710Z,20.20
2022-10-16T05:34:01.023Z,19.13
2022-10-16T05:36:28.239Z,17.27
2022-10-16T05:38:55.399Z,22.88
2022-10-16T05:41:22.939Z,18.40
2022-10-16T05:43:49.942Z,21.13
2022-10-16T05:46:18.378Z,20.10
2022-10-16T05:48:45.251Z,24.92
2022-10-16T05:51:14.215Z,21.98
2022-10-16T05:56:14.667Z,20.60
2022-10-16T05:58:43.959Z,24.85
2022-10-16T06:01:17.418Z,21.77
2022-10-16T06:03:44.783Z,23.55
2022-10-16T06:06:21.275Z,29.05
2022-10-16T06:08:50.182Z,33.72
2022-10-16T06:11:22.901Z,23.52
2022-10-16T06:13:54.022Z,27.25
2022-10-16T06:16:21.519Z,24.08
2022-10-16T06:18:48.659Z,25.00
2022-10-16T06:21:18.821Z,22.17
2022-10-16T06:23:48.942Z,21.77
2022-10-16T06:26:18.665Z,25.88
2022-10-16T06:28:45.912Z,21.27
2022-10-16T06:31:14.062Z,24.77
2022-10-16T06:33:41.495Z,20.23
2022-10-16T06:36:16.521Z,22.40
2022-10-16T06:38:44.530Z,23.55
2022-10-16T06:41:17.435Z,24.20
2022-10-16T06:43:47.446Z,25.52
2022-10-16T06:46:17.363Z,24.20
2022-10-16T06:48:44.788Z,20.98
2022-10-16T06:51:17.174Z,28.63
2022-10-16T06:54:04.151Z,35.92
2022-10-16T06:56:33.381Z,46.67
2022-10-16T06:59:00.467Z,43.22
2022-10-16T07:01:27.927Z,35.42
2022-10-16T07:03:55.036Z,44.50
2022-10-16T07:06:24.115Z,50.83
2022-10-16T07:08:52.061Z,46.38
2022-10-16T07:11:23.571Z,39.83
2022-10-16T07:13:55.016Z,38.17
2022-10-16T07:16:26.637Z,38.78
2022-10-16T07:19:00.325Z,39.72
2022-10-16T07:21:31.031Z,35.75
2022-10-16T07:24:00.671Z,35.03
2022-10-16T07:26:31.129Z,29.33
2022-10-16T07:28:58.517Z,29.00
2022-10-16T07:31:26.138Z,27.30
2022-10-16T07:33:53.203Z,30.13
2022-10-16T07:36:21.346Z,29.15
2022-10-16T07:38:48.829Z,33.47
2022-10-16T07:41:18.278Z,31.63
2022-10-16T07:43:52.272Z,31.33
2022-10-16T07:46:21.853Z,37.38
2022-10-16T07:48:49.468Z,27.00
2022-10-16T07:51:20.495Z,23.67
2022-10-16T07:53:48.872Z,21.45
2022-10-16T07:56:17.961Z,27.15
2022-10-16T07:58:45.596Z,23.15
2022-10-16T08:01:15.058Z,23.13
2022-10-16T08:03:47.572Z,29.33
2022-10-16T08:06:14.778Z,43.45
2022-10-16T08:08:42.991Z,23.67
2022-10-16T08:11:10.570Z,25.63
2022-10-16T08:13:37.727Z,22.38
2022-10-16T08:16:08.944Z,22.75
2022-10-16T08:18:37.839Z,27.13
2022-10-16T08:21:05.882Z,28.45
2022-10-16T08:23:34.283Z,24.75
2022-10-16T08:26:07.424Z,22.92
2022-10-16T08:28:35.346Z,27.35
2022-10-16T08:33:47.911Z,31.70
2022-10-16T08:36:16.630Z,42.95
2022-10-16T08:38:44.569Z,24.67
2022-10-16T08:41:14.362Z,30.92
2022-10-16T08:44:06.403Z,18.92
2022-10-16T08:46:44.803Z,27.52
2022-10-16T08:49:16.655Z,58.40
2022-10-16T08:51:44.372Z,23.42
2022-10-16T08:54:38.480Z,33.05
2022-10-16T08:57:10.291Z,32.85
2022-10-16T08:59:38.219Z,24.17
2022-10-16T09:02:40.140Z,23.85
2022-10-16T09:05:25.674Z,29.45
2022-10-16T09:08:09.182Z,17.52
2022-10-16T09:10:58.553Z,19.07
2022-10-16T09:13:36.228Z,26.67
2022-10-16T09:16:16.782Z,23.58
2022-10-16T09:18:50.003Z,23.10
2022-10-16T09:21:24.183Z,21.20
2022-10-16T09:23:52.340Z,22.25
2022-10-16T09:28:54.006Z,35.20
2022-10-16T09:31:23.741Z,42.92
2022-10-16T09:34:02.955Z,31.25
2022-10-16T09:36:32.412Z,32.90
2022-10-16T09:39:05.909Z,19.42
2022-10-16T09:41:37.147Z,27.85
2022-10-16T09:44:07.720Z,18.95
2022-10-16T09:46:37.730Z,28.25
2022-10-16T09:49:19.951Z,27.52
2022-10-16T09:51:47.666Z,24.17
2022-10-16T09:54:22.072Z,23.67
2022-10-16T09:56:53.206Z,27.17
2022-10-16T09:59:32.753Z,25.88
2022-10-16T10:02:05.076Z,25.83
2022-10-16T10:04:43.304Z,36.15
2022-10-16T10:07:19.846Z,33.33
2022-10-16T10:09:47.991Z,36.78
2022-10-16T10:12:27.285Z,24.38
2022-10-16T10:14:58.179Z,36.88
2022-10-16T10:17:29.604Z,30.25
2022-10-16T10:20:02.517Z,26.92
2022-10-16T10:22:46.650Z,31.67
2022-10-16T10:25:14.249Z,23.77
2022-10-16T10:28:05.386Z,23.50
2022-10-16T10:30:54.921Z,30.98
2022-10-16T10:33:40.970Z,33.30
2022-10-16T10:36:34.472Z,30.33
2022-10-16T10:39:07.375Z,33.53
2022-10-16T10:41:41.190Z,35.17
2022-10-16T10:44:23.196Z,30.63
2022-10-16T10:47:00.340Z,35.20
2022-10-16T10:52:13.081Z,37.13
2022-10-16T10:55:11.157Z,23.95
2022-10-16T10:57:57.061Z,32.35
2022-10-16T11:00:45.468Z,23.48
2022-10-16T11:03:19.296Z,25.27
2022-10-16T11:06:17.811Z,22.50
2022-10-16T11:08:51.881Z,23.52
2022-10-16T11:11:30.849Z,19.48
2022-10-16T11:14:13.280Z,22.45
2022-10-16T11:16:49.295Z,18.83
2022-10-16T11:19:27.367Z,21.13
2022-10-16T11:22:04.321Z,19.42
2022-10-16T11:24:48.506Z,17.63
2022-10-16T11:27:27.576Z,12.48
2022-10-16T11:30:02.186Z,16.85
2022-10-16T11:32:59.232Z,15.02
2022-10-16T11:35:40.028Z,16.52
2022-10-16T11:38:41.688Z,14.15
2022-10-16T11:41:30.480Z,16.10
2022-10-16T11:44:32.591Z,19.67
2022-10-16T11:47:33.683Z,20.98
2022-10-16T11:49:59.511Z,14.35
2022-10-16T11:52:54.987Z,21.35
2022-10-16T11:55:28.248Z,19.65
2022-10-16T11:58:04.251Z,19.05
2022-10-16T12:00:46.712Z,17.60
2022-10-16T12:03:14.661Z,20.80
2022-10-16T12:06:07.496Z,21.17
2022-10-16T12:08:36.588Z,24.42
2022-10-16T12:11:31.120Z,31.63
2022-10-16T12:14:13.733Z,24.45
2022-10-16T12:16:54.295Z,23.67
2022-10-16T12:19:23.291Z,21.90
2022-10-16T12:21:52.215Z,23.35
2022-10-16T12:24:35.493Z,20.40
2022-10-16T12:27:03.024Z,19.17
2022-10-16T12:29:45.315Z,20.05
2022-10-16T12:32:47.335Z,23.35
2022-10-16T12:35:27.983Z,17.80
2022-10-16T12:38:06.032Z,15.60
2022-10-16T12:40:37.185Z,19.75
2022-10-16T12:43:33.410Z,16.60
2022-10-16T12:46:07.172Z,12.73
2022-10-16T12:48:48.416Z,14.88
2022-10-16T12:51:29.288Z,13.13
2022-10-16T12:54:14.895Z,15.77
2022-10-16T12:57:01.433Z,15.73
2022-10-16T12:59:40.753Z,14.60
2022-10-16T13:02:29.389Z,13.63
2022-10-16T13:04:56.500Z,18.88
2022-10-16T13:07:33.143Z,11.38
2022-10-16T13:10:18.856Z,13.45
2022-10-16T13:13:07.161Z,14.27
2022-10-16T13:15:53.983Z,15.13
2022-10-16T13:18:35.482Z,14.82
2022-10-16T13:21:18.118Z,14.73
2022-10-16T13:24:25.240Z,11.27
2022-10-16T13:27:03.694Z,14.70
2022-10-16T13:29:33.381Z,13.88
2022-10-16T13:32:03.147Z,14.50
2022-10-16T13:34:30.452Z,20.08
2022-10-16T13:36:58.560Z,11.65
2022-10-16T13:39:29.632Z,11.95
2022-10-16T13:42:28.393Z,12.52
2022-10-16T13:44:57.338Z,21.77
2022-10-16T13:47:26.972Z,18.58
2022-10-16T13:50:02.700Z,14.13
2022-10-16T13:52:30.402Z,17.38
2022-10-16T13:55:00.960Z,12.77
2022-10-16T13:57:30.097Z,12.85
2022-10-16T13:59:57.125Z,17.40
2022-10-16T14:02:41.217Z,18.13
2022-10-16T14:05:11.825Z,15.30
2022-10-16T14:07:39.633Z,12.82
2022-10-16T14:10:19.594Z,10.90
2022-10-16T14:12:55.011Z,13.70
2022-10-16T14:15:22.516Z,24.33
2022-10-16T14:17:52.981Z,17.85
2022-10-16T14:20:21.866Z,16.33
2022-10-16T14:23:01.187Z,11.98
2022-10-16T14:25:31.426Z,22.58
2022-10-16T14:30:37.011Z,11.05
2022-10-16T14:33:07.327Z,14.80
2022-10-16T14:35:37.966Z,13.82
2022-10-16T14:38:07.239Z,18.73
2022-10-16T14:40:37.246Z,14.30
2022-10-16T14:43:06.050Z,14.60
2022-10-16T14:45:35.942Z,10.27
2022-10-16T14:48:08.041Z,13.48
2022-10-16T14:50:34.992Z,18.85
2022-10-16T14:53:02.007Z,17.20
2022-10-16T14:55:28.993Z,14.70
2022-10-16T14:57:59.586Z,16.58
2022-10-16T15:00:28.043Z,17.75
2022-10-16T15:02:55.028Z,18.70
2022-10-16T15:05:28.550Z,20.08
2022-10-16T15:07:56.615Z,16.67
2022-10-16T15:10:26.254Z,16.08
2022-10-16T15:12:53.685Z,14.05
2022-10-16T15:15:23.847Z,16.25
2022-10-16T15:17:56.687Z,13.70
2022-10-16T15:20:25.794Z,18.77
2022-10-16T15:22:52.827Z,19.75
2022-10-16T15:25:43.536Z,20.55
2022-10-16T15:28:11.790Z,19.17
2022-10-16T15:30:39.597Z,15.73
2022-10-16T15:33:12.574Z,14.48
2022-10-16T15:35:39.543Z,18.65
2022-10-16T15:38:06.552Z,15.63
2022-10-16T15:40:33.511Z,11.95
2022-10-16T15:43:00.449Z,19.25
2022-10-16T15:45:27.329Z,26.30
2022-10-16T15:47:54.257Z,23.33
2022-10-16T15:50:21.308Z,33.17
2022-10-16T15:52:48.192Z,28.80
2022-10-16T15:55:15.632Z,21.58
2022-10-16T15:57:43.904Z,18.08
2022-10-16T16:00:14.349Z,19.58
2022-10-16T16:02:45.118Z,17.50
2022-10-16T16:05:12.525Z,19.45
2022-10-16T16:07:41.375Z,17.95
2022-10-16T16:10:11.154Z,25.40
2022-10-16T16:12:39.127Z,32.58
2022-10-16T16:15:07.800Z,26.75
2022-10-16T16:17:35.859Z,27.30
2022-10-16T16:20:03.967Z,27.52
2022-10-16T16:22:31.555Z,42.35
2022-10-16T16:24:58.693Z,53.83
2022-10-16T16:27:31.012Z,63.78
2022-10-16T16:29:58.560Z,76.40
2022-10-16T16:32:25.821Z,80.57
2022-10-16T16:34:52.802Z,78.22
2022-10-16T16:37:19.699Z,73.78
2022-10-16T16:39:46.609Z,76.07
2022-10-16T16:42:13.542Z,69.50
2022-10-16T16:44:40.505Z,64.38
2022-10-16T16:47:07.486Z,73.10
2022-10-16T16:49:34.472Z,48.10
2022-10-16T16:52:01.454Z,36.42
2022-10-16T16:54:28.639Z,37.70
2022-10-16T16:56:55.634Z,44.83
2022-10-16T16:59:23.119Z,38.67
2022-10-16T17:01:55.582Z,66.88
2022-10-16T17:04:23.518Z,76.88
2022-10-16T17:06:50.499Z,81.50
2022-10-16T17:09:17.691Z,84.75
2022-10-16T17:11:45.784Z,78.72
2022-10-16T17:14:13.362Z,71.22
2022-10-16T17:16:41.121Z,44.33
2022-10-16T17:19:11.509Z,52.22
2022-10-16T17:21:38.459Z,25.50
2022-10-16T17:24:06.527Z,26.10
2022-10-16T17:26:34.074Z,27.77
2022-10-16T17:29:02.590Z,22.20
2022-10-16T17:31:32.362Z,19.95
2022-10-16T17:34:00.834Z,29.52
2022-10-16T17:36:33.125Z,32.65
2022-10-16T17:39:04.784Z,20.13
2022-10-16T17:41:33.305Z,19.08
2022-10-16T17:44:00.641Z,20.80
2022-10-16T17:46:28.281Z,27.15
2022-10-16T17:48:55.902Z,21.05
2022-10-16T17:51:29.246Z,18.70
2022-10-16T17:53:58.713Z,26.83
2022-10-16T17:56:26.695Z,25.42
2022-10-16T17:58:56.927Z,24.88
2022-10-16T18:01:25.420Z,22.85
2022-10-16T18:03:55.064Z,27.17
2022-10-16T18:06:23.438Z,35.15
2022-10-16T18:08:51.961Z,32.15
2022-10-16T18:11:20.136Z,27.67
2022-10-16T18:13:47.690Z,33.65
2022-10-16T18:16:15.901Z,26.88
2022-10-16T18:18:48.194Z,26.60
2022-10-16T18:21:18.922Z,27.77
2022-10-16T18:23:50.909Z,28.15
2022-10-16T18:26:20.843Z,31.88
2022-10-16T18:28:48.500Z,34.65
2022-10-16T18:31:17.451Z,28.75
2022-10-16T18:33:48.639Z,38.97
2022-10-16T18:36:18.217Z,33.28
2022-10-16T18:38:45.619Z,33.00
2022-10-16T18:41:13.435Z,45.00
2022-10-16T18:43:41.141Z,30.40
2022-10-16T18:46:13.326Z,26.45
2022-10-16T18:48:41.101Z,29.85
2022-10-16T18:51:16.266Z,30.35
2022-10-16T18:53:45.709Z,46.35
2022-10-16T18:56:17.111Z,27.23
2022-10-16T18:58:46.181Z,26.77
2022-10-16T19:01:16.392Z,32.00
2022-10-16T19:03:44.415Z,43.97
2022-10-16T19:06:14.530Z,44.45
2022-10-16T19:08:42.662Z,37.80
2022-10-16T19:11:13.106Z,29.95
2022-10-16T19:13:40.129Z,44.72
2022-10-16T19:16:20.492Z,48.70
2022-10-16T19:18:54.531Z,52.40
2022-10-16T19:21:22.698Z,57.10
2022-10-16T19:23:54.480Z,35.45
2022-10-16T19:26:23.636Z,28.45
2022-10-16T19:28:51.900Z,33.95
2022-10-16T19:31:21.592Z,34.85
2022-10-16T19:33:53.115Z,31.00
2022-10-16T19:36:25.874Z,29.80
2022-10-16T19:39:01.887Z,24.70
2022-10-16T19:41:31.158Z,35.13
2022-10-16T19:44:03.033Z,29.60
2022-10-16T19:46:31.631Z,28.63
2022-10-16T19:49:02.142Z,32.10
2022-10-16T19:51:30.586Z,29.38
2022-10-16T19:54:05.480Z,26.33
2022-10-16T19:56:35.125Z,25.08
2022-10-16T19:59:02.076Z,32.08
2022-10-16T20:01:31.305Z,24.63
2022-10-16T20:03:59.560Z,27.35
2022-10-16T20:06:27.483Z,19.95
2022-10-16T20:08:55.765Z,27.15
2022-10-16T20:11:25.664Z,27.70
2022-10-16T20:13:52.569Z,28.35
2022-10-16T20:16:20.638Z,29.73
2022-10-16T20:18:50.128Z,24.63
2022-10-16T20:21:20.444Z,26.83
2022-10-16T20:23:49.046Z,43.35
2022-10-16T20:26:17.841Z,114.25
2022-10-16T20:28:45.275Z,115.95
2022-10-16T20:31:21.018Z,139.25
2022-10-16T20:33:49.305Z,152.80
2022-10-16T20:36:16.806Z,83.70
2022-10-16T20:38:45.113Z,56.47
2022-10-16T20:41:12.177Z,56.10
2022-10-16T20:46:16.835Z,62.38
2022-10-16T20:48:44.834Z,53.92
2022-10-16T20:51:20.729Z,38.72
2022-10-16T20:53:53.014Z,50.53
2022-10-16T20:56:20.482Z,78.93
2022-10-16T20:58:47.638Z,89.55
2022-10-16T21:01:17.024Z,95.32
2022-10-16T21:03:45.202Z,115.82
2022-10-16T21:06:12.836Z,102.20
2022-10-16T21:08:42.965Z,124.63
2022-10-16T21:11:12.461Z,84.30
2022-10-16T21:13:40.341Z,81.50
2022-10-16T21:16:08.655Z,100.00
2022-10-16T21:18:35.648Z,103.50
2022-10-16T21:21:02.663Z,128.55
2022-10-16T21:23:29.688Z,151.38
2022-10-16T21:25:56.707Z,167.00
2022-10-16T21:28:24.158Z,168.65
2022-10-16T21:30:51.435Z,153.10
2022-10-16T21:33:18.294Z,144.98
2022-10-16T21:35:45.417Z,146.05
2022-10-16T21:38:12.880Z,143.13
2022-10-16T21:40:40.322Z,152.18
2022-10-16T21:43:07.184Z,128.43
2022-10-16T21:45:35.098Z,111.40
2022-10-16T21:48:02.094Z,98.43
2022-10-16T21:50:29.399Z,90.57
2022-10-16T21:52:56.504Z,93.35
2022-10-16T21:55:23.822Z,110.82
2022-10-16T21:57:50.782Z,76.00
2022-10-16T22:00:18.134Z,59.95
2022-10-16T22:02:44.998Z,45.80
2022-10-16T22:05:12.149Z,62.40
2022-10-16T22:07:39.318Z,74.22
2022-10-16T22:10:06.983Z,86.97
2022-10-16T22:12:33.870Z,88.18
2022-10-16T22:15:01.354Z,114.53
2022-10-16T22:17:28.569Z,87.53
2022-10-16T22:19:55.863Z,80.70
2022-10-16T22:22:22.961Z,87.72
2022-10-16T22:24:50.130Z,65.55
2022-10-16T22:27:17.054Z,100.22
2022-10-16T22:29:44.794Z,87.30
2022-10-16T22:32:11.654Z,63.85
2022-10-16T22:34:39.554Z,66.68
2022-10-16T22:37:06.728Z,48.15
2022-10-16T22:39:33.891Z,39.60
2022-10-16T22:42:01.072Z,43.42
2022-10-16T22:44:29.418Z,43.15
2022-10-16T22:46:57.314Z,50.75
2022-10-16T22:49:25.959Z,44.17
2022-10-16T22:51:53.003Z,42.75
2022-10-16T22:54:20.152Z,46.78
2022-10-16T22:56:47.057Z,73.18
2022-10-16T22:59:15.160Z,116.72
2022-10-16T23:01:42.705Z,105.43
2022-10-16T23:04:09.940Z,166.30
2022-10-16T23:06:37.427Z,216.85
2022-10-16T23:09:04.599Z,224.20
2022-10-16T23:11:31.594Z,250.77
2022-10-16T23:13:58.931Z,208.68
2022-10-16T23:16:25.886Z,155.00
2022-10-16T23:18:53.769Z,152.25
2022-10-16T23:21:25.773Z,95.47
2022-10-16T23:23:54.998Z,153.55
2022-10-16T23:26:27.002Z,233.23
2022-10-16T23:28:58.449Z,160.70
2022-10-16T23:31:27.153Z,205.70
2022-10-16T23:33:56.564Z,254.85
2022-10-16T23:36:24.912Z,246.02
2022-10-16T23:38:52.674Z,218.95
2022-10-16T23:41:20.673Z,109.00
2022-10-16T23:43:47.874Z,28.08
2022-10-16T23:46:15.729Z,29.08
2022-10-16T23:48:42.733Z,27.13
2022-10-16T23:51:10.679Z,24.25
2022-10-16T23:53:38.597Z,17.50
2022-10-16T23:56:06.130Z,22.15
2022-10-16T23:58:33.012Z,23.23
